Time;durP1;ratioP1;P1;durP2;ratioP2;P2;SDS_P1;SDS_P2;PMS_P1;PMS_P2;Temp;Humidity;BMP_temperature;BMP_pressure;BME280_temperature;BME280_humidity;BME280_pressure;Samples;Min_cycle;Max_cycle;Signal;HPM_P1;HPM_P2
2022/07/03 00:01:36;;;;;;;5.05;2.35;;;17.80;27.80;;;;;;5073975;28;20028;-42
2022/07/03 00:04:02;;;;;;;5.10;2.30;;;18.70;24.40;;;;;;5074617;28;20032;-46
2022/07/03 00:06:30;;;;;;;4.43;2.20;;;16.80;21.50;;;;;;5076040;28;20043;-43
2022/07/03 00:08:57;;;;;;;6.72;2.63;;;17.70;19.30;;;;;;5075250;28;20171;-43
2022/07/03 00:11:26;;;;;;;5.35;2.42;;;16.70;16.30;;;;;;5073883;28;20739;-47
2022/07/03 00:13:54;;;;;;;6.93;2.20;;;16.90;15.50;;;;;;5074143;28;20048;-45
2022/07/03 00:16:20;;;;;;;5.18;2.22;;;18.60;16.10;;;;;;5074046;28;20036;-47
2022/07/03 00:18:46;;;;;;;6.40;2.22;;;16.80;15.30;;;;;;5075704;28;20051;-47
2022/07/03 00:21:19;;;;;;;6.38;2.15;;;16.70;15.80;;;;;;5075234;28;20043;-46
2022/07/03 00:23:50;;;;;;;6.78;2.33;;;16.60;14.90;;;;;;5074227;28;20043;-46
2022/07/03 00:26:19;;;;;;;5.00;2.70;;;16.50;13.30;;;;;;5074560;28;20032;-44
2022/07/03 00:28:46;;;;;;;5.88;2.22;;;16.50;15.20;;;;;;5074312;28;20044;-44
2022/07/03 00:31:12;;;;;;;5.47;2.47;;;16.60;14.90;;;;;;5075437;28;20985;-47
2022/07/03 00:33:39;;;;;;;7.07;2.80;;;16.40;16.20;;;;;;5075915;28;20028;-46
2022/07/03 00:36:05;;;;;;;5.60;2.70;;;16.30;17.20;;;;;;5074616;28;20129;-45
2022/07/03 00:38:31;;;;;;;4.35;2.53;;;16.20;19.40;;;;;;5074996;28;20071;-44
2022/07/03 00:41:00;;;;;;;7.88;2.60;;;18.30;19.40;;;;;;5074675;28;20638;-43
2022/07/03 00:43:26;;;;;;;8.48;2.67;;;16.80;23.40;;;;;;5074604;28;20693;-45
2022/07/03 00:45:53;;;;;;;5.53;2.63;;;16.10;26.00;;;;;;5074867;28;20355;-46
2022/07/03 00:48:20;;;;;;;9.02;3.03;;;15.00;31.70;;;;;;5074878;28;20170;-42
2022/07/03 00:50:51;;;;;;;8.40;3.00;;;16.00;61.50;;;;;;5073582;28;20512;-43
2022/07/03 00:53:32;;;;;;;8.65;3.55;;;15.90;51.60;;;;;;5073487;28;20036;-42
2022/07/03 00:56:00;;;;;;;8.60;2.83;;;17.90;65.80;;;;;;5073406;28;20056;-47
2022/07/03 00:58:27;;;;;;;7.50;2.58;;;15.50;72.10;;;;;;5074338;28;20040;-44
2022/07/03 01:00:54;;;;;;;5.82;2.97;;;15.70;77.70;;;;;;5075508;28;20044;-47
2022/07/03 01:03:24;;;;;;;6.32;2.83;;;15.60;83.80;;;;;;5073748;28;20404;-43
2022/07/03 01:05:55;;;;;;;7.28;2.83;;;17.10;87.00;;;;;;5074313;28;20044;-43
2022/07/03 01:08:43;;;;;;;6.95;3.47;;;15.30;91.40;;;;;;5077445;28;20032;-47
2022/07/03 01:11:38;;;;;;;5.07;2.70;;;15.30;93.80;;;;;;5077813;28;20040;-45
2022/07/03 01:14:32;;;;;;;8.00;2.80;;;15.10;95.50;;;;;;5077612;28;20177;-44
2022/07/03 01:17:03;;;;;;;6.32;3.10;;;15.10;93.20;;;;;;5077103;28;20032;-43
2022/07/03 01:19:31;;;;;;;4.55;2.75;;;15.00;93.10;;;;;;5077728;28;20028;-44
2022/07/03 01:22:26;;;;;;;7.53;3.13;;;16.50;94.20;;;;;;5078800;28;20075;-43
2022/07/03 01:25:10;;;;;;;5.50;3.20;;;14.90;95.40;;;;;;5076454;28;20039;-43
2022/07/03 01:28:14;;;;;;;8.15;3.70;;;14.90;95.00;;;;;;5078422;28;20054;-42
2022/07/03 01:30:43;;;;;;;5.18;2.97;;;14.80;96.60;;;;;;5078435;28;20051;-43
2022/07/03 01:33:17;;;;;;;7.13;2.80;;;14.60;97.80;;;;;;5077115;28;20114;-43
2022/07/03 01:36:06;;;;;;;9.82;3.08;;;16.20;97.50;;;;;;5077205;28;20097;-44
2022/07/03 01:38:36;;;;;;;7.72;3.20;;;14.70;95.80;;;;;;5076265;28;20032;-42
2022/07/03 01:41:05;;;;;;;7.00;3.65;;;14.70;94.60;;;;;;5078317;28;20046;-42
2022/07/03 01:43:43;;;;;;;7.93;3.28;;;14.60;96.70;;;;;;5077544;28;20500;-43
2022/07/03 01:46:12;;;;;;;6.47;3.40;;;14.90;95.50;;;;;;5078553;28;20888;-46
2022/07/03 01:48:42;;;;;;;7.95;3.58;;;15.70;96.80;;;;;;5077650;28;20044;-42
2022/07/03 01:51:13;;;;;;;7.20;3.67;;;15.70;96.00;;;;;;5077903;28;20047;-41
2022/07/03 01:53:44;;;;;;;7.30;3.40;;;15.50;96.40;;;;;;5076832;28;20043;-42
2022/07/03 01:56:10;;;;;;;6.95;4.10;;;14.90;95.00;;;;;;5076891;28;20460;-43
2022/07/03 01:58:36;;;;;;;8.32;4.00;;;16.70;94.90;;;;;;5076244;28;20048;-44
2022/07/03 02:01:24;;;;;;;6.30;3.78;;;14.80;95.70;;;;;;5077185;28;20081;-45
2022/07/03 02:04:27;;;;;;;7.13;3.80;;;14.60;97.10;;;;;;5076317;28;20339;-45
2022/07/03 02:07:19;;;;;;;8.40;4.32;;;14.60;96.90;;;;;;4980126;28;20427;-43
2022/07/03 02:09:58;;;;;;;5.95;4.30;;;14.50;99.00;;;;;;4977283;28;20527;-43
2022/07/03 02:12:31;;;;;;;5.97;3.90;;;14.30;99.90;;;;;;4967633;28;20050;-43
2022/07/03 02:15:06;;;;;;;7.15;4.18;;;14.00;99.90;;;;;;4978445;28;20720;-43
2022/07/03 02:17:44;;;;;;;7.30;4.70;;;14.40;99.90;;;;;;4977461;28;20058;-44
2022/07/03 02:20:11;;;;;;;11.88;5.68;;;14.90;99.90;;;;;;4980570;28;20038;-42
2022/07/03 02:22:46;;;;;;;6.32;4.00;;;15.30;99.90;;;;;;4979039;28;20050;-43
2022/07/03 02:25:28;;;;;;;8.02;4.22;;;14.20;99.90;;;;;;4983184;28;20069;-44
2022/07/03 02:27:56;;;;;;;9.40;4.25;;;14.50;99.90;;;;;;4978100;28;20034;-43
2022/07/03 02:30:28;;;;;;;6.57;3.83;;;16.00;99.90;;;;;;4982188;28;20530;-43
2022/07/03 02:32:57;;;;;;;7.50;4.55;;;14.40;99.90;;;;;;4983375;28;20140;-43
2022/07/03 02:35:30;;;;;;;5.63;4.50;;;14.30;99.90;;;;;;4980162;28;20038;-42
2022/07/03 02:38:13;;;;;;;7.65;4.32;;;14.00;99.90;;;;;;4977849;28;20054;-42
2022/07/03 02:41:06;;;;;;;8.50;4.80;;;14.00;99.90;;;;;;4978585;28;20038;-45
2022/07/03 02:43:46;;;;;;;6.10;5.05;;;14.10;99.90;;;;;;5012482;28;20577;-46
2022/07/03 02:46:49;;;;;;;6.45;4.88;;;14.00;99.90;;;;;;5075369;28;20074;-43
2022/07/03 02:49:49;;;;;;;6.35;4.47;;;13.60;99.90;;;;;;5075840;28;20072;-45
2022/07/03 02:53:14;;;;;;;7.00;4.40;;;13.70;99.90;;;;;;5076675;28;20051;-44
2022/07/03 02:55:44;;;;;;;7.88;5.22;;;13.90;99.90;;;;;;4993625;28;20065;-44
2022/07/03 02:58:52;;;;;;;6.55;4.50;;;13.50;99.90;;;;;;4993502;28;20050;-45
2022/07/03 03:01:34;;;;;;;7.95;4.35;;;13.60;99.90;;;;;;4994295;28;20041;-43
2022/07/03 03:04:12;;;;;;;6.63;4.55;;;13.50;99.90;;;;;;4993527;28;20042;-44
2022/07/03 03:06:46;;;;;;;11.20;5.72;;;13.50;99.90;;;;;;4992853;28;20553;-45
2022/07/03 03:09:20;;;;;;;6.05;4.70;;;13.70;99.90;;;;;;4993342;28;20050;-45
2022/07/03 03:11:47;;;;;;;8.77;4.65;;;14.00;99.90;;;;;;4991762;28;20058;-45
2022/07/03 03:14:19;;;;;;;7.70;4.90;;;13.60;99.90;;;;;;4976011;28;20075;-43
2022/07/03 03:16:52;;;;;;;7.40;5.43;;;13.40;99.90;;;;;;4991685;28;20046;-44
2022/07/03 03:19:23;;;;;;;7.07;5.32;;;13.40;99.90;;;;;;4991946;28;20380;-44
2022/07/03 03:22:09;;;;;;;8.00;5.65;;;13.40;99.90;;;;;;4992520;28;20041;-47
2022/07/03 03:24:35;;;;;;;6.72;5.45;;;13.90;99.90;;;;;;4991628;28;20038;-46
2022/07/03 03:27:01;;;;;;;7.75;5.32;;;13.40;99.90;;;;;;4991657;28;20812;-44
2022/07/03 03:29:27;;;;;;;7.75;5.10;;;13.60;99.90;;;;;;5037155;28;20048;-43
2022/07/03 03:31:53;;;;;;;9.75;4.97;;;13.30;99.90;;;;;;5074617;28;20160;-46
2022/07/03 03:34:22;;;;;;;6.97;4.45;;;13.30;99.90;;;;;;5073972;28;20708;-46
2022/07/03 03:36:48;;;;;;;6.57;4.63;;;14.30;99.90;;;;;;5072067;28;20043;-43
2022/07/03 03:39:14;;;;;;;7.50;5.05;;;13.60;99.90;;;;;;5073717;28;20043;-47
2022/07/03 03:41:39;;;;;;;7.63;4.90;;;13.40;99.90;;;;;;5075261;28;20875;-43
2022/07/03 03:44:05;;;;;;;6.82;5.10;;;14.40;99.90;;;;;;5074055;28;20040;-43
2022/07/03 03:46:33;;;;;;;8.02;5.40;;;13.50;99.90;;;;;;5074269;28;20054;-46
2022/07/03 03:48:58;;;;;;;7.60;5.43;;;13.30;99.90;;;;;;5072081;28;20703;-46
2022/07/03 03:51:24;;;;;;;7.40;5.20;;;13.40;99.90;;;;;;5075211;28;20052;-44
2022/07/03 03:53:50;;;;;;;8.18;5.50;;;13.50;99.90;;;;;;5073545;28;20568;-46
2022/07/03 03:56:15;;;;;;;7.65;5.78;;;13.70;99.90;;;;;;5073544;28;20119;-48
2022/07/03 03:58:42;;;;;;;13.13;6.55;;;13.60;99.90;;;;;;5075924;28;20048;-43
2022/07/03 04:01:10;;;;;;;10.38;6.63;;;13.50;99.90;;;;;;5075384;28;20130;-41
2022/07/03 04:03:37;;;;;;;9.35;6.78;;;13.50;99.90;;;;;;5074364;28;20732;-47
2022/07/03 04:06:03;;;;;;;7.90;6.35;;;15.70;99.90;;;;;;5073464;28;20518;-41
2022/07/03 04:08:30;;;;;;;9.98;7.18;;;13.60;99.90;;;;;;5072952;28;20032;-46
2022/07/03 04:10:56;;;;;;;9.65;6.82;;;14.90;99.90;;;;;;5074103;28;20066;-44
2022/07/03 04:13:21;;;;;;;8.13;7.30;;;13.70;99.90;;;;;;5074577;28;20468;-46
2022/07/03 04:15:48;;;;;;;9.63;7.22;;;15.60;99.90;;;;;;5072745;28;20347;-46
2022/07/03 04:18:14;;;;;;;8.48;7.18;;;13.90;99.90;;;;;;5073697;28;20040;-45
2022/07/03 04:20:40;;;;;;;9.05;6.45;;;13.90;99.90;;;;;;5074082;28;20047;-44
2022/07/03 04:23:08;;;;;;;8.82;6.07;;;14.10;99.90;;;;;;5074631;28;20121;-43
2022/07/03 04:25:34;;;;;;;8.10;6.60;;;14.10;99.90;;;;;;5073418;28;20044;-47
2022/07/03 04:28:00;;;;;;;10.38;6.85;;;14.10;99.90;;;;;;5073759;28;20036;-47
2022/07/03 04:30:25;;;;;;;9.65;7.10;;;14.10;99.90;;;;;;5073290;28;20119;-45
2022/07/03 04:32:53;;;;;;;10.02;5.75;;;15.00;99.90;;;;;;5073644;28;20040;-43
2022/07/03 04:35:19;;;;;;;11.65;6.63;;;14.20;99.90;;;;;;5072934;28;20047;-44
2022/07/03 04:37:45;;;;;;;10.63;6.32;;;16.10;99.90;;;;;;5073427;28;20044;-46
2022/07/03 04:40:13;;;;;;;9.80;7.15;;;14.80;99.90;;;;;;5070637;28;20528;-44
2022/07/03 04:42:39;;;;;;;7.60;6.40;;;14.60;99.90;;;;;;5075722;28;20036;-44
2022/07/03 04:45:05;;;;;;;8.15;5.70;;;14.50;99.90;;;;;;5077959;28;20036;-48
2022/07/03 04:47:33;;;;;;;10.32;6.25;;;15.00;99.90;;;;;;5076069;28;20497;-46
2022/07/03 04:49:59;;;;;;;8.50;6.22;;;15.20;99.90;;;;;;5077608;28;20648;-43
2022/07/03 04:52:25;;;;;;;15.00;6.10;;;15.20;99.90;;;;;;5078759;28;20038;-44
2022/07/03 04:54:50;;;;;;;8.98;6.07;;;16.70;99.90;;;;;;5077217;28;20265;-44
2022/07/03 04:57:16;;;;;;;8.13;6.32;;;15.60;99.90;;;;;;5077612;28;20455;-48
2022/07/03 04:59:42;;;;;;;8.73;6.00;;;15.50;99.90;;;;;;5077897;28;20067;-46
2022/07/03 05:02:08;;;;;;;11.07;5.60;;;15.80;99.90;;;;;;5077119;28;20040;-42
2022/07/03 05:04:34;;;;;;;8.63;5.45;;;15.90;99.90;;;;;;5075817;28;20048;-46
2022/07/03 05:07:00;;;;;;;8.45;5.70;;;15.90;99.90;;;;;;5076131;28;20109;-46
2022/07/03 05:09:25;;;;;;;8.35;5.28;;;16.30;99.90;;;;;;5077512;28;20035;-47
2022/07/03 05:11:53;;;;;;;8.57;5.60;;;18.60;99.90;;;;;;5076576;28;20048;-47
2022/07/03 05:14:20;;;;;;;7.55;4.30;;;16.70;99.90;;;;;;5077613;28;20043;-45
2022/07/03 05:16:46;;;;;;;10.73;4.47;;;18.90;99.90;;;;;;5075581;28;20044;-46
2022/07/03 05:19:12;;;;;;;8.13;4.43;;;17.20;99.90;;;;;;5076803;28;20043;-45
2022/07/03 05:21:37;;;;;;;6.25;3.30;;;17.00;99.90;;;;;;5076491;28;20089;-47
2022/07/03 05:24:03;;;;;;;6.75;3.50;;;17.20;99.90;;;;;;5075769;28;20151;-44
2022/07/03 05:26:29;;;;;;;6.82;3.08;;;17.30;99.90;;;;;;5076705;28;20069;-46
2022/07/03 05:28:56;;;;;;;5.50;2.63;;;18.10;99.90;;;;;;5077292;28;20055;-46
2022/07/03 05:31:22;;;;;;;5.72;2.53;;;18.60;99.90;;;;;;5077803;28;20051;-44
2022/07/03 05:33:48;;;;;;;9.48;3.03;;;17.80;98.90;;;;;;5076082;28;20378;-48
2022/07/03 05:36:15;;;;;;;6.43;2.60;;;17.80;97.70;;;;;;5076060;28;20040;-47
2022/07/03 05:41:25;;;;;;;6.20;2.60;;;17.80;95.40;;;;;;5075232;28;20044;-43
2022/07/03 05:43:51;;;;;;;4.32;1.92;;;18.00;95.80;;;;;;5076943;28;20036;-46
2022/07/03 05:46:16;;;;;;;5.13;2.17;;;18.00;94.60;;;;;;5075903;28;20653;-44
2022/07/03 05:48:43;;;;;;;5.28;2.25;;;18.10;92.20;;;;;;5076426;28;20072;-44
2022/07/03 05:51:08;;;;;;;7.05;3.25;;;18.40;89.70;;;;;;5074735;28;20075;-42
2022/07/03 05:53:34;;;;;;;5.85;2.25;;;18.20;90.30;;;;;;5075049;28;20437;-43
2022/07/03 05:56:00;;;;;;;6.07;2.08;;;18.40;88.90;;;;;;5074228;28;20044;-43
2022/07/03 05:58:25;;;;;;;8.23;2.00;;;19.60;85.10;;;;;;5075223;28;20040;-42
2022/07/03 06:00:53;;;;;;;5.53;2.00;;;20.20;79.60;;;;;;5074765;28;20052;-47
2022/07/03 06:03:19;;;;;;;5.65;1.88;;;18.90;76.00;;;;;;5075970;28;20104;-43
2022/07/03 06:05:44;;;;;;;5.30;1.70;;;18.90;75.20;;;;;;5075066;28;20442;-45
2022/07/03 06:08:10;;;;;;;6.82;1.60;;;18.80;75.40;;;;;;5075831;28;20047;-45
2022/07/03 06:10:36;;;;;;;4.40;1.50;;;18.90;78.40;;;;;;5077069;28;20044;-42
2022/07/03 06:13:02;;;;;;;4.57;1.58;;;18.70;73.40;;;;;;5073335;28;20319;-45
2022/07/03 06:15:27;;;;;;;3.65;1.40;;;18.90;76.40;;;;;;5075032;28;20040;-46
2022/07/03 06:17:53;;;;;;;7.40;1.70;;;19.00;74.00;;;;;;5075709;28;20036;-43
2022/07/03 06:20:19;;;;;;;4.25;1.52;;;20.80;76.90;;;;;;5075404;28;20286;-43
2022/07/03 06:22:45;;;;;;;7.10;1.60;;;21.30;69.70;;;;;;5074752;28;20056;-47
2022/07/03 06:25:11;;;;;;;5.32;1.70;;;19.80;67.30;;;;;;5075001;28;20083;-45
2022/07/03 06:27:36;;;;;;;4.80;1.40;;;20.00;60.00;;;;;;5075057;28;20040;-44
2022/07/03 06:30:05;;;;;;;5.95;1.60;;;20.60;48.90;;;;;;5075759;28;20058;-47
2022/07/03 06:32:30;;;;;;;5.30;1.65;;;20.60;35.20;;;;;;5074667;28;20093;-47
2022/07/03 06:34:58;;;;;;;4.63;1.63;;;19.70;47.90;;;;;;5074719;28;20055;-42
2022/07/03 06:37:24;;;;;;;4.95;1.70;;;19.40;52.20;;;;;;5074718;28;20032;-42
2022/07/03 06:39:49;;;;;;;6.38;1.33;;;20.10;58.10;;;;;;5074850;28;20040;-43
2022/07/03 06:42:15;;;;;;;3.83;1.33;;;19.20;64.20;;;;;;5075860;28;20050;-43
2022/07/03 06:44:41;;;;;;;3.88;1.50;;;19.00;71.40;;;;;;5075196;28;20040;-44
2022/07/03 06:47:07;;;;;;;4.40;1.42;;;19.00;78.40;;;;;;5074788;28;20036;-51
2022/07/03 06:49:35;;;;;;;3.00;1.50;;;19.10;80.40;;;;;;5074613;28;20055;-54
2022/07/03 06:52:01;;;;;;;4.70;1.60;;;19.60;85.50;;;;;;5075076;28;20496;-53
2022/07/03 06:54:27;;;;;;;3.92;1.40;;;19.80;82.70;;;;;;5076171;28;20051;-51
2022/07/03 06:56:54;;;;;;;6.22;1.30;;;20.20;67.60;;;;;;5074335;28;20546;-54
2022/07/03 06:59:20;;;;;;;3.90;1.30;;;20.60;38.50;;;;;;5073759;28;20397;-52
2022/07/03 07:01:46;;;;;;;11.05;2.50;;;20.70;35.30;;;;;;5075042;28;20058;-55
2022/07/03 07:04:12;;;;;;;6.18;1.52;;;21.00;34.90;;;;;;5074936;28;20489;-53
2022/07/03 07:06:38;;;;;;;6.13;1.55;;;21.10;28.40;;;;;;5073800;28;20063;-54
2022/07/03 07:09:04;;;;;;;4.18;1.02;;;21.00;7.80;;;;;;5073997;28;20816;-54
2022/07/03 07:11:33;;;;;;;4.40;1.40;;;22.80;7.30;;;;;;5074014;28;20464;-50
2022/07/03 07:13:59;;;;;;;5.75;1.10;;;22.90;8.60;;;;;;5073026;28;20060;-54
2022/07/03 07:16:24;;;;;;;4.00;1.20;;;20.10;19.10;;;;;;5074099;28;20032;-53
2022/07/03 07:18:50;;;;;;;2.67;1.10;;;19.90;32.10;;;;;;5073358;28;20059;-53
2022/07/03 07:21:16;;;;;;;3.13;1.10;;;20.10;35.40;;;;;;5075682;28;20492;-54
2022/07/03 07:23:41;;;;;;;3.83;1.17;;;20.30;52.10;;;;;;5072561;28;20071;-54
2022/07/03 07:26:07;;;;;;;4.97;1.20;;;21.30;46.00;;;;;;5073585;28;20521;-53
2022/07/03 07:28:34;;;;;;;5.50;1.00;;;22.60;3.40;;;;;;5074879;28;20054;-55
2022/07/03 07:31:01;;;;;;;4.45;1.23;;;23.10;1.00;;;;;;5075109;28;20641;-54
2022/07/03 07:33:28;;;;;;;3.53;1.40;;;26.20;1.00;;;;;;5074335;28;20361;-53
2022/07/03 07:35:54;;;;;;;4.00;0.90;;;24.80;1.00;;;;;;5074025;28;20126;-54
2022/07/03 07:38:20;;;;;;;2.78;0.90;;;25.90;99.90;;;;;;5072743;28;20577;-55
2022/07/03 07:40:46;;;;;;;4.40;1.10;;;26.90;99.90;;;;;;5075404;28;20084;-55
2022/07/03 07:43:12;;;;;;;4.00;1.13;;;27.30;99.90;;;;;;5074253;28;20044;-56
2022/07/03 07:45:38;;;;;;;2.20;0.70;;;26.90;99.90;;;;;;5073640;28;20035;-55
2022/07/03 07:48:04;;;;;;;2.17;0.60;;;26.80;55.20;;;;;;5074020;28;20043;-57
2022/07/03 07:50:30;;;;;;;4.60;0.85;;;26.70;99.90;;;;;;5073927;28;20688;-55
2022/07/03 07:52:56;;;;;;;5.82;0.90;;;25.90;68.10;;;;;;5071529;28;20044;-55
2022/07/03 07:55:25;;;;;;;2.72;1.02;;;25.80;99.90;;;;;;5072140;28;21088;-56
2022/07/03 07:57:51;;;;;;;4.20;0.70;;;26.00;1.00;;;;;;5073260;28;20152;-56
2022/07/03 08:00:18;;;;;;;2.78;0.70;;;26.80;32.20;;;;;;5074282;28;20028;-57
2022/07/03 08:05:36;;;;;;;4.13;0.82;;;28.10;80.40;;;;;;5073308;28;20047;-57
2022/07/03 08:08:06;;;;;;;5.05;0.93;;;28.80;1.00;;;;;;5073452;28;20500;-56
2022/07/03 08:10:40;;;;;;;2.25;0.80;;;29.30;99.90;;;;;;5073928;28;20044;-57
2022/07/03 08:13:06;;;;;;;4.55;0.90;;;29.50;99.90;;;;;;5074135;28;20039;-57
2022/07/03 08:15:33;;;;;;;2.72;0.60;;;31.20;99.90;;;;;;5072999;28;20835;-56
2022/07/03 08:17:59;;;;;;;3.08;0.60;;;30.00;99.90;;;;;;5076045;28;20036;-56
2022/07/03 08:20:26;;;;;;;3.33;0.77;;;29.30;83.80;;;;;;5077025;28;20114;-57
2022/07/03 08:22:52;;;;;;;3.55;0.80;;;29.30;3.80;;;;;;5079281;28;20040;-57
2022/07/03 08:25:18;;;;;;;3.47;0.80;;;29.60;17.20;;;;;;5078396;28;20043;-57
2022/07/03 08:27:45;;;;;;;3.60;0.70;;;29.80;19.50;;;;;;5076834;28;20050;-57
2022/07/03 08:30:14;;;;;;;2.78;0.88;;;29.40;1.00;;;;;;5076759;28;20512;-57
2022/07/03 08:32:40;;;;;;;1.90;0.57;;;29.60;3.00;;;;;;5073357;28;20566;-57
2022/07/03 08:35:08;;;;;;;3.55;0.88;;;29.50;1.00;;;;;;5077826;28;20115;-57
2022/07/03 08:37:34;;;;;;;2.47;0.60;;;28.90;1.00;;;;;;5076957;28;20396;-56
2022/07/03 08:40:01;;;;;;;3.60;0.60;;;28.80;1.00;;;;;;5076899;28;20081;-56
2022/07/03 08:42:28;;;;;;;2.58;0.70;;;28.80;1.00;;;;;;5077340;28;20516;-57
2022/07/03 08:44:55;;;;;;;2.90;0.80;;;29.40;1.00;;;;;;5078035;28;20129;-58
2022/07/03 08:47:21;;;;;;;2.22;0.70;;;29.10;1.00;;;;;;5077880;28;20044;-57
2022/07/03 08:49:48;;;;;;;4.28;1.05;;;29.40;1.00;;;;;;5076481;28;20208;-56
2022/07/03 08:52:14;;;;;;;3.50;0.70;;;29.20;1.00;;;;;;5076134;28;20447;-57
2022/07/03 08:54:40;;;;;;;3.28;1.27;;;29.40;1.00;;;;;;5076882;28;20119;-56
2022/07/03 08:57:06;;;;;;;3.00;1.15;;;29.60;1.00;;;;;;5078348;28;20474;-57
2022/07/03 08:59:38;;;;;;;4.70;0.80;;;29.30;1.00;;;;;;5076354;28;20036;-57
2022/07/03 09:02:05;;;;;;;1.58;0.57;;;28.90;1.00;;;;;;5075904;28;20108;-57
2022/07/03 09:04:34;;;;;;;2.03;0.60;;;29.20;1.00;;;;;;5075323;28;20039;-56
2022/07/03 09:07:01;;;;;;;3.67;0.88;;;29.00;1.00;;;;;;5076559;28;20035;-56
2022/07/03 09:09:27;;;;;;;3.10;0.73;;;28.60;1.00;;;;;;5076690;28;20040;-57
2022/07/03 09:11:55;;;;;;;2.17;0.50;;;28.30;1.00;;;;;;5077629;28;20139;-56
2022/07/03 09:14:21;;;;;;;3.08;0.65;;;28.30;4.20;;;;;;5075957;28;20101;-56
2022/07/03 09:16:46;;;;;;;2.67;0.80;;;28.40;92.60;;;;;;5075374;28;20036;-57
2022/07/03 09:19:14;;;;;;;2.47;0.70;;;28.00;32.90;;;;;;5076660;28;20074;-56
2022/07/03 09:21:41;;;;;;;3.00;0.80;;;28.20;44.80;;;;;;5076856;28;20040;-56
2022/07/03 09:24:09;;;;;;;2.22;0.60;;;27.40;91.50;;;;;;5077189;28;20040;-54
2022/07/03 09:26:48;;;;;;;2.92;0.73;;;27.20;99.90;;;;;;5074508;28;20697;-55
2022/07/03 09:29:14;;;;;;;4.05;0.90;;;26.60;99.90;;;;;;5074888;28;20512;-55
2022/07/03 09:31:42;;;;;;;3.10;0.98;;;26.30;99.90;;;;;;5076682;28;20040;-54
2022/07/03 09:34:08;;;;;;;1.95;0.60;;;26.00;99.90;;;;;;5075328;28;20508;-57
2022/07/03 09:36:45;;;;;;;3.08;0.68;;;26.20;11.80;;;;;;5076085;28;20032;-55
2022/07/03 09:39:31;;;;;;;3.42;0.80;;;26.10;90.20;;;;;;5075185;28;20096;-54
2022/07/03 09:42:05;;;;;;;5.35;0.73;;;26.20;99.90;;;;;;5075202;28;20109;-53
2022/07/03 09:44:44;;;;;;;5.40;0.82;;;26.40;1.00;;;;;;5074592;28;20090;-54
2022/07/03 09:47:12;;;;;;;2.78;0.88;;;26.30;1.00;;;;;;5076000;28;20028;-55
2022/07/03 09:49:54;;;;;;;3.22;0.73;;;27.70;1.00;;;;;;5075972;28;20151;-56
2022/07/03 09:52:47;;;;;;;2.75;0.70;;;26.00;1.00;;;;;;5075468;28;20048;-56
2022/07/03 09:55:18;;;;;;;3.55;0.82;;;26.20;99.90;;;;;;5014285;28;20053;-54
2022/07/03 09:57:46;;;;;;;2.90;0.68;;;25.90;99.90;;;;;;5012283;28;20548;-54
2022/07/03 10:00:17;;;;;;;3.97;0.90;;;25.40;99.90;;;;;;5012424;28;20466;-55
2022/07/03 10:03:05;;;;;;;3.30;0.80;;;25.40;1.00;;;;;;5013637;28;20045;-54
2022/07/03 10:05:34;;;;;;;2.90;0.88;;;25.30;1.00;;;;;;5013671;28;20042;-54
2022/07/03 10:08:18;;;;;;;3.42;1.00;;;25.40;99.90;;;;;;4998405;28;20147;-54
2022/07/03 10:10:48;;;;;;;3.58;1.00;;;25.40;99.90;;;;;;5014177;28;20277;-54
2022/07/03 10:13:16;;;;;;;3.58;0.88;;;25.30;99.90;;;;;;5013423;28;20144;-55
2022/07/03 10:15:43;;;;;;;6.10;0.73;;;25.70;99.90;;;;;;5014166;28;20693;-54
2022/07/03 10:18:13;;;;;;;6.15;0.88;;;25.60;99.90;;;;;;4997715;28;20498;-54
2022/07/03 10:20:41;;;;;;;5.85;1.80;;;25.40;99.90;;;;;;5014258;28;20046;-55
2022/07/03 10:23:07;;;;;;;3.58;1.20;;;25.50;99.90;;;;;;5014373;28;20114;-54
2022/07/03 10:25:33;;;;;;;5.95;0.88;;;25.30;99.90;;;;;;5013532;28;20046;-53
2022/07/03 10:28:01;;;;;;;5.53;1.13;;;25.70;99.90;;;;;;5013546;28;20038;-55
2022/07/03 10:30:29;;;;;;;3.50;0.73;;;25.60;99.90;;;;;;5013018;28;20041;-54
2022/07/03 10:32:56;;;;;;;4.65;0.80;;;25.40;99.90;;;;;;5067999;28;20110;-54
2022/07/03 10:35:28;;;;;;;3.90;0.93;;;25.20;99.90;;;;;;5076987;28;20319;-55
2022/07/03 10:38:03;;;;;;;5.18;0.80;;;25.30;99.90;;;;;;5075815;28;20075;-52
2022/07/03 10:46:24;;;;;;;5.47;1.15;;;26.20;99.90;;;;;;5074984;28;20063;-54
2022/07/03 10:49:00;;;;;;;3.40;0.90;;;26.30;99.90;;;;;;5076106;28;20463;-53
2022/07/03 10:51:28;;;;;;;6.15;1.27;;;26.00;99.90;;;;;;5073438;28;20094;-50
2022/07/03 10:54:14;;;;;;;6.10;1.10;;;25.60;99.90;;;;;;5075383;28;20048;-53
2022/07/03 10:56:58;;;;;;;7.28;1.20;;;25.00;99.90;;;;;;5073584;28;20476;-55
2022/07/03 10:59:36;;;;;;;4.65;1.38;;;24.70;99.90;;;;;;5076690;28;20051;-55
2022/07/03 11:02:18;;;;;;;2.90;0.90;;;24.70;99.90;;;;;;5076569;28;20068;-53
2022/07/03 11:04:59;;;;;;;4.55;0.80;;;25.20;99.90;;;;;;5074136;28;20396;-54
2022/07/03 11:07:28;;;;;;;4.10;0.90;;;25.40;99.90;;;;;;5073996;28;20063;-53
2022/07/03 11:10:06;;;;;;;3.55;0.68;;;25.40;99.90;;;;;;5076233;28;20074;-54
2022/07/03 11:12:57;;;;;;;3.72;0.80;;;25.50;99.90;;;;;;5075042;28;20032;-51
2022/07/03 11:15:30;;;;;;;5.65;1.50;;;25.00;94.50;;;;;;5074797;28;20118;-54
2022/07/03 11:18:19;;;;;;;8.07;1.65;;;24.70;99.90;;;;;;5075505;28;20035;-50
2022/07/03 11:20:45;;;;;;;8.82;1.58;;;24.10;99.90;;;;;;5073916;28;20044;-53
2022/07/03 11:23:10;;;;;;;12.45;1.40;;;24.40;1.00;;;;;;5075729;28;20062;-50
2022/07/03 11:25:51;;;;;;;9.98;1.88;;;25.50;1.00;;;;;;5075863;28;20520;-51
2022/07/03 11:28:32;;;;;;;7.13;1.70;;;25.30;99.90;;;;;;5074498;28;20536;-54
2022/07/03 11:31:29;;;;;;;5.30;1.17;;;24.80;99.90;;;;;;5075399;28;20039;-53
2022/07/03 11:33:55;;;;;;;4.35;1.10;;;24.30;99.90;;;;;;5011447;28;20054;-54
2022/07/03 11:36:27;;;;;;;5.32;1.30;;;23.90;99.90;;;;;;5011796;28;20163;-53
2022/07/03 11:38:58;;;;;;;7.30;1.20;;;23.60;99.90;;;;;;5010419;28;20512;-53
2022/07/03 11:41:30;;;;;;;5.85;1.30;;;23.20;99.90;;;;;;5010632;28;20033;-52
2022/07/03 11:43:57;;;;;;;;;;;22.80;99.90;;;;;;5011029;28;20073;-51
2022/07/03 11:46:25;;;;;;;6.28;1.30;;;22.60;99.90;;;;;;5010688;28;20386;-51
2022/07/03 11:49:07;;;;;;;4.15;1.00;;;22.60;99.90;;;;;;5012439;28;20632;-51
2022/07/03 11:51:34;;;;;;;6.68;1.48;;;22.60;1.00;;;;;;5010928;28;20054;-50
2022/07/03 11:54:02;;;;;;;4.70;1.23;;;22.70;1.00;;;;;;5012758;28;20081;-50
2022/07/03 11:56:28;;;;;;;6.18;1.50;;;22.80;88.50;;;;;;5011276;28;20107;-48
2022/07/03 11:58:55;;;;;;;10.20;2.42;;;22.90;99.90;;;;;;5011214;28;20033;-51
2022/07/03 12:01:27;;;;;;;6.25;1.40;;;23.00;99.90;;;;;;5011322;28;20064;-51
2022/07/03 12:04:13;;;;;;;6.40;1.20;;;23.30;99.90;;;;;;5010015;28;20088;-53
2022/07/03 12:06:50;;;;;;;5.30;1.42;;;23.40;1.00;;;;;;5012919;28;20277;-51
2022/07/03 12:09:29;;;;;;;3.70;0.88;;;23.80;99.90;;;;;;5037016;28;20131;-51
2022/07/03 12:12:07;;;;;;;3.75;1.20;;;23.80;1.00;;;;;;5075744;28;20052;-52
2022/07/03 12:14:50;;;;;;;5.13;0.90;;;23.60;99.90;;;;;;5074878;28;20063;-51
2022/07/03 12:17:22;;;;;;;7.25;1.08;;;23.20;99.90;;;;;;5074356;28;20047;-50
2022/07/03 12:19:51;;;;;;;7.65;1.20;;;23.10;99.90;;;;;;5074463;28;20472;-52
2022/07/03 12:22:28;;;;;;;3.67;1.05;;;22.90;99.90;;;;;;5074289;28;20085;-50
2022/07/03 12:25:03;;;;;;;3.03;0.80;;;22.50;99.90;;;;;;5074323;28;20063;-50
2022/07/03 12:27:32;;;;;;;4.38;1.05;;;22.40;99.90;;;;;;5073618;28;20519;-53
2022/07/03 12:29:58;;;;;;;4.40;0.90;;;22.50;99.90;;;;;;5073117;28;20093;-53
2022/07/03 12:32:25;;;;;;;3.45;0.90;;;22.50;99.90;;;;;;5075077;28;20142;-51
2022/07/03 12:34:52;;;;;;;5.75;1.05;;;22.90;99.90;;;;;;5072988;28;20048;-51
2022/07/03 12:37:40;;;;;;;2.78;0.95;;;24.60;99.90;;;;;;5073043;28;20075;-53
2022/07/03 12:40:09;;;;;;;5.13;1.15;;;25.80;99.90;;;;;;5072894;28;20040;-54
2022/07/03 12:42:55;;;;;;;4.82;1.02;;;24.10;99.90;;;;;;5073765;28;20032;-52
2022/07/03 12:45:24;;;;;;;3.63;1.00;;;24.50;93.10;;;;;;5074021;28;20097;-51
2022/07/03 12:48:03;;;;;;;4.95;1.63;;;24.40;10.50;;;;;;5074685;28;20036;-51
2022/07/03 12:50:51;;;;;;;3.95;1.15;;;24.10;38.70;;;;;;5073806;28;20051;-52
2022/07/03 12:53:54;;;;;;;4.63;0.90;;;24.10;45.70;;;;;;5075040;28;20368;-53
2022/07/03 12:56:20;;;;;;;5.10;1.08;;;24.20;1.00;;;;;;5012121;28;21027;-53
2022/07/03 13:01:41;;;;;;;3.33;0.90;;;22.80;1.00;;;;;;5010394;28;20103;-53
2022/07/03 13:04:08;;;;;;;3.97;0.70;;;24.30;1.00;;;;;;5015076;28;20045;-54
2022/07/03 13:06:34;;;;;;;3.42;0.82;;;24.00;1.00;;;;;;5014854;28;20053;-49
2022/07/03 13:09:02;;;;;;;4.55;1.25;;;23.80;1.00;;;;;;5014722;28;20122;-53
2022/07/03 13:11:35;;;;;;;2.85;0.70;;;23.60;1.00;;;;;;5014969;28;20176;-50
2022/07/03 13:14:10;;;;;;;4.20;0.80;;;23.30;1.00;;;;;;5012785;28;20065;-50
2022/07/03 13:16:38;;;;;;;3.33;0.80;;;23.00;1.00;;;;;;5014111;28;21417;-54
2022/07/03 13:19:05;;;;;;;4.32;1.02;;;22.90;1.00;;;;;;5013212;28;20773;-52
2022/07/03 13:21:31;;;;;;;3.60;0.77;;;22.80;1.00;;;;;;5014102;28;20728;-50